createdAt,value
2022-09-04T00:01:38.050Z,20.80
2022-09-04T00:04:29.826Z,20.90
2022-09-04T00:07:08.458Z,20.80
2022-09-04T00:10:19.261Z,20.90
2022-09-04T00:12:57.020Z,20.90
2022-09-04T00:15:31.259Z,20.90
2022-09-04T00:18:08.742Z,20.80
2022-09-04T00:20:46.794Z,20.80
2022-09-04T00:23:33.842Z,20.80
2022-09-04T00:26:21.218Z,20.70
2022-09-04T00:28:56.203Z,20.70
2022-09-04T00:31:29.067Z,20.70
2022-09-04T00:34:07.391Z,20.70
2022-09-04T00:36:38.879Z,20.70
2022-09-04T00:39:33.584Z,20.70
2022-09-04T00:42:12.214Z,20.70
2022-09-04T00:44:48.057Z,20.70
2022-09-04T00:47:51.534Z,20.60
2022-09-04T00:50:28.632Z,20.60
2022-09-04T00:53:11.697Z,20.60
2022-09-04T00:55:41.202Z,20.70
2022-09-04T00:58:43.865Z,20.70
2022-09-04T01:01:18.870Z,20.70
2022-09-04T01:03:56.166Z,20.70
2022-09-04T01:06:54.558Z,20.60
2022-09-04T01:09:36.203Z,20.60
2022-09-04T01:12:45.650Z,20.60
2022-09-04T01:15:26.266Z,20.70
2022-09-04T01:18:03.517Z,20.60
2022-09-04T01:20:36.367Z,20.50
2022-09-04T01:23:42.300Z,20.50
2022-09-04T01:26:33.766Z,20.50
2022-09-04T01:29:21.163Z,20.40
2022-09-04T01:32:06.729Z,20.40
2022-09-04T01:34:45.146Z,20.40
2022-09-04T01:37:41.725Z,20.40
2022-09-04T01:40:14.455Z,20.40
2022-09-04T01:42:48.888Z,20.40
2022-09-04T01:45:30.240Z,20.40
2022-09-04T01:48:02.835Z,20.30
2022-09-04T01:50:32.928Z,20.30
2022-09-04T01:53:23.884Z,20.30
2022-09-04T01:56:14.805Z,20.30
2022-09-04T01:59:01.222Z,20.30
2022-09-04T02:01:42.700Z,20.30
2022-09-04T02:04:18.688Z,20.30
2022-09-04T02:07:02.980Z,20.30
2022-09-04T02:09:40.313Z,20.30
2022-09-04T02:12:30.093Z,20.20
2022-09-04T02:15:31.653Z,20.20
2022-09-04T02:18:39.113Z,20.20
2022-09-04T02:21:20.352Z,20.10
2022-09-04T02:24:00.627Z,20.10
2022-09-04T02:26:52.935Z,20.00
2022-09-04T02:29:36.044Z,20.10
2022-09-04T02:32:14.481Z,20.10
2022-09-04T02:34:44.439Z,20.00
2022-09-04T02:37:46.037Z,20.10
2022-09-04T02:40:27.691Z,20.10
2022-09-04T02:43:15.350Z,20.10
2022-09-04T02:46:11.444Z,20.00
2022-09-04T02:49:03.500Z,20.10
2022-09-04T02:52:01.417Z,20.10
2022-09-04T02:54:57.665Z,20.10
2022-09-04T02:57:56.818Z,20.20
2022-09-04T03:00:59.113Z,20.10
2022-09-04T03:03:47.754Z,20.10
2022-09-04T03:06:26.134Z,20.10
2022-09-04T03:08:59.494Z,20.00
2022-09-04T03:12:03.912Z,20.00
2022-09-04T03:14:46.419Z,20.10
2022-09-04T03:17:28.037Z,20.00
2022-09-04T03:20:06.199Z,20.00
2022-09-04T03:22:43.270Z,20.00
2022-09-04T03:25:43.864Z,20.00
2022-09-04T03:28:36.313Z,20.00
2022-09-04T03:31:16.557Z,20.00
2022-09-04T03:33:50.955Z,20.00
2022-09-04T03:36:40.189Z,20.00
2022-09-04T03:39:45.967Z,19.90
2022-09-04T03:42:26.892Z,19.90
2022-09-04T03:45:25.990Z,19.80
2022-09-04T03:48:12.242Z,19.80
2022-09-04T03:50:48.555Z,19.80
2022-09-04T03:53:19.199Z,19.80
2022-09-04T03:56:01.405Z,19.80
2022-09-04T03:59:05.587Z,19.80
2022-09-04T04:01:50.293Z,19.80
2022-09-04T04:04:52.233Z,19.70
2022-09-04T04:07:27.317Z,19.80
2022-09-04T04:10:33.433Z,19.70
2022-09-04T04:13:08.763Z,19.60
2022-09-04T04:16:09.203Z,19.60
2022-09-04T04:18:53.498Z,19.60
2022-09-04T04:21:32.755Z,19.60
2022-09-04T04:24:20.868Z,19.60
2022-09-04T04:27:26.188Z,19.60
2022-09-04T04:30:01.920Z,19.60
2022-09-04T04:33:09.711Z,19.60
2022-09-04T04:35:57.803Z,19.60
2022-09-04T04:38:47.665Z,19.70
2022-09-04T04:42:01.858Z,19.60
2022-09-04T04:45:09.133Z,19.60
2022-09-04T04:47:48.423Z,19.60
2022-09-04T04:50:37.181Z,19.60
2022-09-04T04:53:24.841Z,19.60
2022-09-04T04:56:15.495Z,19.60
2022-09-04T04:58:53.944Z,19.50
2022-09-04T05:01:44.512Z,19.50
2022-09-04T05:04:14.142Z,19.40
2022-09-04T05:06:51.278Z,19.40
2022-09-04T05:09:18.988Z,19.40
2022-09-04T05:12:03.533Z,19.40
2022-09-04T05:14:30.236Z,19.40
2022-09-04T05:17:21.910Z,19.30
2022-09-04T05:19:54.979Z,19.30
2022-09-04T05:22:41.126Z,19.30
2022-09-04T05:25:21.732Z,19.30
2022-09-04T05:28:03.372Z,19.30
2022-09-04T05:30:41.817Z,19.20
2022-09-04T05:33:20.394Z,19.30
2022-09-04T05:36:06.777Z,19.30
2022-09-04T05:39:01.848Z,19.40
2022-09-04T05:42:16.884Z,19.30
2022-09-04T05:44:58.620Z,19.30
2022-09-04T05:47:50.775Z,19.20
2022-09-04T05:50:41.698Z,19.30
2022-09-04T05:53:14.463Z,19.30
2022-09-04T05:56:10.482Z,19.30
2022-09-04T05:59:31.262Z,19.40
2022-09-04T06:02:24.112Z,19.40
2022-09-04T06:04:57.089Z,19.50
2022-09-04T06:07:52.126Z,19.50
2022-09-04T06:10:25.027Z,19.40
2022-09-04T06:13:32.590Z,19.40
2022-09-04T06:16:02.222Z,19.40
2022-09-04T06:18:34.729Z,19.40
2022-09-04T06:21:32.403Z,19.40
2022-09-04T06:24:16.874Z,19.50
2022-09-04T06:26:57.603Z,19.50
2022-09-04T06:29:38.265Z,19.40
2022-09-04T06:32:26.911Z,19.50
2022-09-04T06:35:11.736Z,19.50
2022-09-04T06:38:03.662Z,19.60
2022-09-04T06:40:52.534Z,19.60
2022-09-04T06:43:40.567Z,19.70
2022-09-04T06:46:27.242Z,19.90
2022-09-04T06:49:09.170Z,20.00
2022-09-04T06:51:42.951Z,20.00
2022-09-04T06:54:26.998Z,20.00
2022-09-04T06:57:25.178Z,20.00
2022-09-04T07:00:03.128Z,20.10
2022-09-04T07:02:35.992Z,20.20
2022-09-04T07:05:36.962Z,20.20
2022-09-04T07:08:06.788Z,20.20
2022-09-04T07:10:36.593Z,20.30
2022-09-04T07:13:23.676Z,20.30
2022-09-04T07:16:24.319Z,20.50
2022-09-04T07:19:07.962Z,20.60
2022-09-04T07:22:07.978Z,20.60
2022-09-04T07:25:12.118Z,20.70
2022-09-04T07:27:44.757Z,20.80
2022-09-04T07:30:14.873Z,21.00
2022-09-04T07:33:00.232Z,21.20
2022-09-04T07:35:54.323Z,21.40
2022-09-04T07:38:36.233Z,21.60
2022-09-04T07:41:13.361Z,21.80
2022-09-04T07:44:03.538Z,22.10
2022-09-04T07:47:00.793Z,22.20
2022-09-04T07:49:51.532Z,22.40
2022-09-04T07:52:39.323Z,22.60
2022-09-04T07:55:41.416Z,22.70
2022-09-04T07:58:18.809Z,22.80
2022-09-04T08:01:16.563Z,23.00
2022-09-04T08:04:20.860Z,23.00
2022-09-04T08:07:11.697Z,23.10
2022-09-04T08:09:56.284Z,23.20
2022-09-04T08:12:42.696Z,23.30
2022-09-04T08:15:40.999Z,23.40
2022-09-04T08:18:35.214Z,23.50
2022-09-04T08:21:17.596Z,23.60
2022-09-04T08:23:59.392Z,23.60
2022-09-04T08:26:51.061Z,23.70
2022-09-04T08:29:31.203Z,23.80
2022-09-04T08:32:04.653Z,23.80
2022-09-04T08:35:01.440Z,23.80
2022-09-04T08:37:45.345Z,23.80
2022-09-04T08:40:36.559Z,23.80
2022-09-04T08:43:28.592Z,23.80
2022-09-04T08:46:49.484Z,23.90
2022-09-04T08:49:52.112Z,23.90
2022-09-04T08:52:43.489Z,23.90
2022-09-04T08:55:38.330Z,24.00
2022-09-04T08:58:47.726Z,24.00
2022-09-04T09:01:39.937Z,24.00
2022-09-04T09:04:35.799Z,24.00
2022-09-04T09:07:37.800Z,23.90
2022-09-04T09:10:19.834Z,23.90
2022-09-04T09:13:11.368Z,23.90
2022-09-04T09:15:51.782Z,23.90
2022-09-04T09:18:45.776Z,23.90
2022-09-04T09:21:54.469Z,24.00
2022-09-04T09:25:02.694Z,24.00
2022-09-04T09:27:56.903Z,24.00
2022-09-04T09:30:24.741Z,24.00
2022-09-04T09:33:16.249Z,24.10
2022-09-04T09:35:54.663Z,24.10
2022-09-04T09:38:39.444Z,24.10
2022-09-04T09:41:43.223Z,24.10
2022-09-04T09:44:42.544Z,24.10
2022-09-04T09:47:43.238Z,24.10
2022-09-04T09:50:34.351Z,24.10
2022-09-04T09:53:13.056Z,24.10
2022-09-04T09:55:48.697Z,24.10
2022-09-04T09:58:24.516Z,24.20
2022-09-04T10:01:15.228Z,24.20
2022-09-04T10:04:17.161Z,24.20
2022-09-04T10:07:02.532Z,24.20
2022-09-04T10:09:48.930Z,24.20
2022-09-04T10:12:54.394Z,24.20
2022-09-04T10:15:50.242Z,24.30
2022-09-04T10:18:38.819Z,24.30
2022-09-04T10:21:22.554Z,24.30
2022-09-04T10:24:12.604Z,24.30
2022-09-04T10:26:45.499Z,24.30
2022-09-04T10:29:50.343Z,24.30
2022-09-04T10:32:33.128Z,24.20
2022-09-04T10:35:22.011Z,24.20
2022-09-04T10:38:08.558Z,24.20
2022-09-04T10:40:51.678Z,24.20
2022-09-04T10:43:58.078Z,24.30
2022-09-04T10:46:29.236Z,24.30
2022-09-04T10:49:33.826Z,24.40
2022-09-04T10:52:25.354Z,24.50
2022-09-04T10:55:08.931Z,24.40
2022-09-04T10:58:08.646Z,24.40
2022-09-04T11:00:50.084Z,24.50
2022-09-04T11:03:35.848Z,24.50
2022-09-04T11:06:16.556Z,24.50
2022-09-04T11:09:17.045Z,24.50
2022-09-04T11:12:07.506Z,24.50
2022-09-04T11:14:55.323Z,24.50
2022-09-04T11:17:22.204Z,24.60
2022-09-04T11:20:18.542Z,24.70
2022-09-04T11:23:05.241Z,24.70
2022-09-04T11:25:46.572Z,24.60
2022-09-04T11:28:19.557Z,24.70
2022-09-04T11:31:12.057Z,24.70
2022-09-04T11:34:05.176Z,24.80
2022-09-04T11:36:39.532Z,24.70
2022-09-04T11:39:33.820Z,24.70
2022-09-04T11:42:47.199Z,24.70
2022-09-04T11:46:02.240Z,24.70
2022-09-04T11:48:46.907Z,24.70
2022-09-04T11:51:44.172Z,24.70
2022-09-04T11:54:13.928Z,24.70
2022-09-04T11:56:43.560Z,24.70
2022-09-04T11:59:31.819Z,24.70
2022-09-04T12:02:16.498Z,24.80
2022-09-04T12:05:40.659Z,24.80
2022-09-04T12:08:25.599Z,24.80
2022-09-04T12:11:19.582Z,24.80
2022-09-04T12:13:52.669Z,24.90
2022-09-04T12:16:27.924Z,24.90
2022-09-04T12:19:21.310Z,24.80
2022-09-04T12:22:14.576Z,24.80
2022-09-04T12:24:52.699Z,24.80
2022-09-04T12:28:08.908Z,24.80
2022-09-04T12:30:50.550Z,24.90
2022-09-04T12:33:48.406Z,24.90
2022-09-04T12:36:47.547Z,24.90
2022-09-04T12:39:46.910Z,25.00
2022-09-04T12:42:46.430Z,25.20
2022-09-04T12:45:42.008Z,25.30
2022-09-04T12:48:33.326Z,25.30
2022-09-04T12:51:00.020Z,25.20
2022-09-04T12:53:49.300Z,25.20
2022-09-04T12:56:42.187Z,25.20
2022-09-04T12:59:24.062Z,25.20
2022-09-04T13:02:21.142Z,25.20
2022-09-04T13:05:12.472Z,25.20
2022-09-04T13:07:40.936Z,25.20
2022-09-04T13:10:16.256Z,25.30
2022-09-04T13:13:01.537Z,25.40
2022-09-04T13:15:59.482Z,25.40
2022-09-04T13:18:34.786Z,25.30
2022-09-04T13:21:13.354Z,25.40
2022-09-04T13:24:00.200Z,25.50
2022-09-04T13:26:35.687Z,25.50
2022-09-04T13:29:25.608Z,25.40
2022-09-04T13:32:07.085Z,25.40
2022-09-04T13:34:54.849Z,25.40
2022-09-04T13:37:59.469Z,25.30
2022-09-04T13:40:41.124Z,25.50
2022-09-04T13:43:26.536Z,25.60
2022-09-04T13:46:03.044Z,25.60
2022-09-04T13:48:41.909Z,25.60
2022-09-04T13:51:24.225Z,25.60
2022-09-04T13:54:09.000Z,25.50
2022-09-04T13:56:54.989Z,25.50
2022-09-04T13:59:23.456Z,25.70
2022-09-04T14:01:55.013Z,25.70
2022-09-04T14:04:29.795Z,25.80
2022-09-04T14:07:06.284Z,25.80
2022-09-04T14:09:41.870Z,25.90
2022-09-04T14:12:20.011Z,25.90
2022-09-04T14:15:08.041Z,25.90
2022-09-04T14:17:49.613Z,25.80
2022-09-04T14:20:22.491Z,25.70
2022-09-04T14:23:04.744Z,25.70
2022-09-04T14:26:04.677Z,25.80
2022-09-04T14:28:37.776Z,25.70
2022-09-04T14:31:11.073Z,25.70
2022-09-04T14:33:44.304Z,25.80
2022-09-04T14:36:23.799Z,25.80
2022-09-04T14:39:18.763Z,27.20
2022-09-04T14:42:12.397Z,25.70
2022-09-04T14:44:48.234Z,25.70
2022-09-04T14:47:39.012Z,25.80
2022-09-04T14:50:13.229Z,25.90
2022-09-04T14:52:48.120Z,25.90
2022-09-04T14:55:22.995Z,25.80
2022-09-04T14:58:19.620Z,25.80
2022-09-04T15:01:09.258Z,25.60
2022-09-04T15:04:06.368Z,25.60
2022-09-04T15:07:07.802Z,25.60
2022-09-04T15:09:41.534Z,25.60
2022-09-04T15:12:24.581Z,25.60
2022-09-04T15:15:14.216Z,25.70
2022-09-04T15:17:51.615Z,25.70
2022-09-04T15:20:23.960Z,25.80
2022-09-04T15:22:59.768Z,25.70
2022-09-04T15:26:07.200Z,25.70
2022-09-04T15:28:49.479Z,25.60
2022-09-04T15:31:28.696Z,25.50
2022-09-04T15:34:03.435Z,25.50
2022-09-04T15:36:31.244Z,25.50
2022-09-04T15:39:01.320Z,25.50
2022-09-04T15:41:44.687Z,25.50
2022-09-04T15:44:20.441Z,25.40
2022-09-04T15:46:47.501Z,25.40
2022-09-04T15:49:51.554Z,25.40
2022-09-04T15:52:40.378Z,25.40
2022-09-04T15:55:22.267Z,25.30
2022-09-04T15:58:04.885Z,25.20
2022-09-04T16:00:37.121Z,25.20
2022-09-04T16:03:16.211Z,25.10
2022-09-04T16:05:48.832Z,25.10
2022-09-04T16:08:36.591Z,25.10
2022-09-04T16:11:20.918Z,25.00
2022-09-04T16:13:50.638Z,25.00
2022-09-04T16:16:46.586Z,25.00
2022-09-04T16:19:20.912Z,25.00
2022-09-04T16:22:14.470Z,25.00
2022-09-04T16:24:46.054Z,24.90
2022-09-04T16:27:20.829Z,25.00
2022-09-04T16:30:14.891Z,25.00
2022-09-04T16:32:43.659Z,24.90
2022-09-04T16:35:21.361Z,25.00
2022-09-04T16:38:25.860Z,25.00
2022-09-04T16:41:01.940Z,25.00
2022-09-04T16:43:34.257Z,24.90
2022-09-04T16:46:27.597Z,24.90
2022-09-04T16:49:03.555Z,24.90
2022-09-04T16:51:44.553Z,24.80
2022-09-04T16:54:30.887Z,24.80
2022-09-04T16:57:15.459Z,24.80
2022-09-04T16:59:53.071Z,24.80
2022-09-04T17:03:10.127Z,24.80
2022-09-04T17:05:45.777Z,24.70
2022-09-04T17:08:27.629Z,24.60
2022-09-04T17:11:09.110Z,24.60
2022-09-04T17:13:52.347Z,24.60
2022-09-04T17:16:24.613Z,24.60
2022-09-04T17:18:54.702Z,24.60
2022-09-04T17:28:14.890Z,24.60
2022-09-04T17:29:18.801Z,24.50
2022-09-04T17:29:19.381Z,24.60
2022-09-04T17:31:13.618Z,24.50
2022-09-04T17:39:52.912Z,24.50
2022-09-04T17:40:36.079Z,24.40
2022-09-04T17:40:44.160Z,24.50
2022-09-04T17:43:21.343Z,24.40
2022-09-04T17:46:09.117Z,24.40
2022-09-04T17:48:45.713Z,24.40
2022-09-04T17:51:24.475Z,24.40
2022-09-04T17:53:57.105Z,24.40
2022-09-04T17:56:46.745Z,24.40
2022-09-04T17:59:24.680Z,24.40
2022-09-04T18:01:51.548Z,24.30
2022-09-04T18:04:26.984Z,24.40
2022-09-04T18:07:28.676Z,24.40
2022-09-04T18:10:09.289Z,24.30
2022-09-04T18:12:49.394Z,24.30
2022-09-04T18:16:03.171Z,24.30
2022-09-04T18:18:48.596Z,24.20
2022-09-04T18:21:31.592Z,24.20
2022-09-04T18:24:10.744Z,24.20
2022-09-04T18:26:52.388Z,24.10
2022-09-04T18:30:11.846Z,24.10
2022-09-04T18:37:05.914Z,24.10
2022-09-04T18:37:21.165Z,24.10
2022-09-04T18:38:29.096Z,24.00
2022-09-04T18:44:19.335Z,24.00
2022-09-04T18:50:20.738Z,24.00
2022-09-04T18:50:38.252Z,23.90
2022-09-04T18:50:45.371Z,24.00
2022-09-04T18:52:20.115Z,23.90
2022-09-04T18:54:54.093Z,23.80
2022-09-04T18:57:33.100Z,23.80
2022-09-04T19:00:12.448Z,23.80
2022-09-04T19:02:55.206Z,23.80
2022-09-04T19:05:30.584Z,23.70
2022-09-04T19:08:22.011Z,23.70
2022-09-04T19:10:57.651Z,23.60
2022-09-04T19:13:51.611Z,23.60
2022-09-04T19:16:27.036Z,23.50
2022-09-04T19:19:17.152Z,23.40
2022-09-04T19:22:01.929Z,23.30
2022-09-04T19:24:51.824Z,23.30
2022-09-04T19:27:31.605Z,23.20
2022-09-04T19:30:18.526Z,23.20
2022-09-04T19:33:03.748Z,23.10
2022-09-04T19:35:45.470Z,23.10
2022-09-04T19:45:57.373Z,23.00
2022-09-04T19:46:08.070Z,23.00
2022-09-04T19:46:15.404Z,23.00
2022-09-04T19:47:37.325Z,23.00
2022-09-04T19:53:19.220Z,22.90
2022-09-04T19:53:37.545Z,22.90
2022-09-04T19:56:26.087Z,22.80
2022-09-04T19:59:04.695Z,22.80
2022-09-04T20:02:02.701Z,22.80
2022-09-04T20:04:56.664Z,22.80
2022-09-04T20:07:29.455Z,22.70
2022-09-04T20:10:04.600Z,22.60
2022-09-04T20:12:42.930Z,22.60
2022-09-04T20:15:22.206Z,22.50
2022-09-04T20:18:08.541Z,22.50
2022-09-04T20:20:46.085Z,22.50
2022-09-04T20:23:35.094Z,22.40
2022-09-04T20:26:30.919Z,22.40
2022-09-04T20:29:30.834Z,22.40
2022-09-04T20:32:11.223Z,22.40
2022-09-04T20:34:49.409Z,22.30
2022-09-04T20:37:41.581Z,22.30
2022-09-04T20:40:37.540Z,22.30
2022-09-04T20:43:07.461Z,22.20
2022-09-04T20:51:29.326Z,22.10
2022-09-04T20:52:49.130Z,22.10
2022-09-04T20:52:53.682Z,22.10
2022-09-04T20:54:51.843Z,22.00
2022-09-04T21:03:09.940Z,22.00
2022-09-04T21:03:20.469Z,21.90
2022-09-04T21:04:13.008Z,21.90
2022-09-04T21:06:45.170Z,21.80
2022-09-04T21:09:30.736Z,21.80
2022-09-04T21:12:03.396Z,21.80
2022-09-04T21:14:45.229Z,21.80
2022-09-04T21:17:35.065Z,21.80
2022-09-04T21:20:17.588Z,21.70
2022-09-04T21:22:48.584Z,21.70
2022-09-04T21:25:47.461Z,21.70
2022-09-04T21:28:35.875Z,21.70
2022-09-04T21:31:44.706Z,21.70
2022-09-04T21:34:54.159Z,21.60
2022-09-04T21:37:36.687Z,21.60
2022-09-04T21:40:51.187Z,21.50
2022-09-04T21:43:21.255Z,21.50
2022-09-04T21:46:05.273Z,21.50
2022-09-04T21:49:07.822Z,21.50
2022-09-04T21:51:53.802Z,21.40
2022-09-04T21:55:50.147Z,21.40
2022-09-04T22:02:30.010Z,21.30
2022-09-04T22:02:39.550Z,21.30
2022-09-04T22:04:35.711Z,21.20
2022-09-04T22:13:26.391Z,21.20
2022-09-04T22:13:43.729Z,21.20
2022-09-04T22:13:50.182Z,21.20
2022-09-04T22:16:17.677Z,21.20
2022-09-04T22:19:16.539Z,21.10
2022-09-04T22:22:18.656Z,21.10
2022-09-04T22:25:05.776Z,21.10
2022-09-04T22:28:10.403Z,21.00
2022-09-04T22:30:55.928Z,21.00
2022-09-04T22:33:48.318Z,20.90
2022-09-04T22:36:41.441Z,20.90
2022-09-04T22:39:43.518Z,20.90
2022-09-04T22:42:47.991Z,20.90
2022-09-04T22:45:21.700Z,20.90
2022-09-04T22:48:19.158Z,20.80
2022-09-04T22:51:23.633Z,20.90
2022-09-04T22:54:13.371Z,20.90
2022-09-04T22:57:02.792Z,20.80
2022-09-04T22:59:55.526Z,20.70
2022-09-04T23:03:07.275Z,20.60
2022-09-04T23:07:04.022Z,20.70
2022-09-04T23:13:46.329Z,20.70
2022-09-04T23:13:53.603Z,20.60
2022-09-04T23:15:10.634Z,20.60
2022-09-04T23:18:51.747Z,20.60
2022-09-04T23:26:33.169Z,20.60
2022-09-04T23:26:45.672Z,20.50
2022-09-04T23:27:08.783Z,20.40
2022-09-04T23:30:06.148Z,20.40
2022-09-04T23:32:58.854Z,20.40
2022-09-04T23:35:34.390Z,20.40
2022-09-04T23:38:20.000Z,20.40
2022-09-04T23:41:05.649Z,20.30
2022-09-04T23:44:06.188Z,20.40
2022-09-04T23:47:03.136Z,20.40
2022-09-04T23:49:51.922Z,20.30
2022-09-04T23:52:48.998Z,20.10
2022-09-04T23:55:48.941Z,20.10
2022-09-04T23:58:55.962Z,20.10
